createdAt,value
2022-08-26T00:01:55.705Z,18.10
2022-08-26T00:04:25.212Z,18.20
2022-08-26T00:06:53.450Z,18.12
2022-08-26T00:09:21.759Z,18.30
2022-08-26T00:11:50.056Z,18.70
2022-08-26T00:14:18.999Z,17.95
2022-08-26T00:16:51.487Z,18.76
2022-08-26T00:19:20.854Z,18.26
2022-08-26T00:21:49.896Z,18.53
2022-08-26T00:24:18.031Z,18.01
2022-08-26T00:26:48.140Z,17.76
2022-08-26T00:29:16.392Z,18.44
2022-08-26T00:31:45.666Z,18.34
2022-08-26T00:34:16.798Z,17.94
2022-08-26T00:36:47.599Z,17.86
2022-08-26T00:39:17.049Z,17.82
2022-08-26T00:41:48.355Z,17.47
2022-08-26T00:44:16.376Z,17.60
2022-08-26T00:46:47.686Z,17.20
2022-08-26T00:49:22.871Z,17.78
2022-08-26T00:51:52.591Z,18.23
2022-08-26T00:54:23.062Z,17.99
2022-08-26T00:56:56.730Z,17.89
2022-08-26T00:59:26.044Z,17.70
2022-08-26T01:01:53.878Z,17.63
2022-08-26T01:04:23.839Z,17.32
2022-08-26T01:06:56.111Z,17.27
2022-08-26T01:09:24.142Z,17.78
2022-08-26T01:11:55.183Z,17.42
2022-08-26T01:14:23.942Z,17.06
2022-08-26T01:16:52.344Z,17.10
2022-08-26T01:19:26.838Z,17.29
2022-08-26T01:21:57.764Z,17.82
2022-08-26T01:24:28.854Z,19.25
2022-08-26T01:26:58.278Z,19.23
2022-08-26T01:29:26.707Z,19.38
2022-08-26T01:31:56.774Z,19.52
2022-08-26T01:34:27.601Z,19.40
2022-08-26T01:37:00.448Z,19.54
2022-08-26T01:39:29.869Z,19.47
2022-08-26T01:41:59.068Z,19.72
2022-08-26T01:44:36.438Z,19.46
2022-08-26T01:47:06.496Z,19.34
2022-08-26T01:49:35.779Z,18.42
2022-08-26T01:52:05.420Z,18.14
2022-08-26T01:54:35.787Z,18.02
2022-08-26T01:57:04.228Z,17.88
2022-08-26T01:59:32.031Z,17.76
2022-08-26T02:01:59.883Z,17.49
2022-08-26T02:04:32.362Z,17.32
2022-08-26T02:07:00.906Z,17.60
2022-08-26T02:09:28.941Z,17.39
2022-08-26T02:12:00.415Z,17.33
2022-08-26T02:14:31.507Z,16.99
2022-08-26T02:16:59.516Z,16.94
2022-08-26T02:19:31.046Z,17.35
2022-08-26T02:22:01.112Z,16.73
2022-08-26T02:24:31.477Z,16.65
2022-08-26T02:27:01.598Z,16.61
2022-08-26T02:29:33.093Z,16.50
2022-08-26T02:32:00.997Z,16.56
2022-08-26T02:34:31.231Z,16.51
2022-08-26T02:37:00.770Z,16.50
2022-08-26T02:39:29.425Z,17.39
2022-08-26T02:41:57.683Z,16.85
2022-08-26T02:44:27.626Z,16.96
2022-08-26T03:02:11.277Z,17.54
2022-08-26T03:04:39.913Z,17.90
2022-08-26T03:07:08.645Z,18.17
2022-08-26T03:09:36.530Z,18.25
2022-08-26T03:12:05.398Z,18.59
2022-08-26T03:14:33.309Z,18.40
2022-08-26T03:17:01.924Z,18.45
2022-08-26T03:19:32.366Z,18.48
2022-08-26T03:22:04.254Z,18.44
2022-08-26T03:24:32.716Z,18.36
2022-08-26T03:27:02.023Z,18.39
2022-08-26T03:29:52.691Z,18.46
2022-08-26T03:32:21.463Z,18.42
2022-08-26T03:34:50.838Z,18.46
2022-08-26T03:37:19.196Z,18.52
2022-08-26T03:39:46.927Z,18.67
2022-08-26T03:42:14.882Z,18.62
2022-08-26T03:44:43.987Z,18.73
2022-08-26T03:47:13.844Z,18.96
2022-08-26T03:49:41.813Z,18.85
2022-08-26T03:52:11.631Z,18.79
2022-08-26T03:54:40.616Z,18.83
2022-08-26T03:57:11.325Z,18.68
2022-08-26T03:59:39.324Z,18.73
2022-08-26T04:02:11.660Z,18.73
2022-08-26T04:04:39.902Z,18.64
2022-08-26T04:07:08.151Z,18.59
2022-08-26T04:09:37.234Z,18.52
2022-08-26T04:12:05.794Z,18.46
2022-08-26T04:14:35.765Z,18.37
2022-08-26T04:17:06.392Z,18.33
2022-08-26T04:19:35.505Z,18.24
2022-08-26T04:22:03.262Z,18.30
2022-08-26T04:24:31.153Z,18.34
2022-08-26T04:27:02.553Z,18.40
2022-08-26T04:29:31.078Z,18.37
2022-08-26T04:31:59.090Z,18.37
2022-08-26T04:34:29.067Z,18.36
2022-08-26T04:36:57.420Z,18.35
2022-08-26T04:39:25.696Z,18.42
2022-08-26T04:41:55.927Z,18.42
2022-08-26T04:44:30.261Z,18.44
2022-08-26T04:47:59.625Z,18.45
2022-08-26T04:50:28.335Z,18.39
2022-08-26T04:52:56.544Z,18.42
2022-08-26T04:55:25.185Z,18.42
2022-08-26T04:58:08.703Z,18.38
2022-08-26T05:00:40.485Z,18.40
2022-08-26T05:03:10.564Z,18.40
2022-08-26T05:05:40.197Z,18.40
2022-08-26T05:08:08.380Z,18.44
2022-08-26T05:10:41.145Z,18.42
2022-08-26T05:13:11.133Z,18.45
2022-08-26T05:15:45.258Z,18.42
2022-08-26T05:18:14.260Z,18.45
2022-08-26T05:20:44.720Z,18.42
2022-08-26T05:23:12.932Z,18.42
2022-08-26T05:25:42.008Z,18.47
2022-08-26T05:28:11.379Z,18.54
2022-08-26T05:30:40.550Z,18.46
2022-08-26T05:33:10.402Z,18.49
2022-08-26T05:35:39.055Z,18.47
2022-08-26T05:38:12.493Z,18.52
2022-08-26T05:40:42.841Z,18.55
2022-08-26T05:43:11.913Z,18.70
2022-08-26T05:45:45.895Z,18.76
2022-08-26T05:48:22.814Z,18.75
2022-08-26T05:50:54.341Z,18.83
2022-08-26T05:53:23.990Z,18.84
2022-08-26T05:55:55.323Z,18.92
2022-08-26T05:58:24.472Z,18.96
2022-08-26T06:01:00.735Z,19.00
2022-08-26T06:03:38.303Z,19.20
2022-08-26T06:06:07.998Z,19.19
2022-08-26T06:08:36.311Z,19.18
2022-08-26T06:11:06.441Z,19.16
2022-08-26T06:13:36.317Z,19.20
2022-08-26T06:16:06.550Z,19.31
2022-08-26T06:18:38.458Z,19.48
2022-08-26T06:21:15.354Z,19.72
2022-08-26T06:24:01.593Z,19.58
2022-08-26T06:26:29.931Z,19.71
2022-08-26T06:28:58.731Z,19.57
2022-08-26T06:31:27.542Z,19.44
2022-08-26T06:33:58.861Z,19.75
2022-08-26T06:36:28.717Z,19.74
2022-08-26T06:38:57.601Z,19.78
2022-08-26T06:41:25.808Z,19.78
2022-08-26T06:43:53.636Z,20.27
2022-08-26T06:46:23.005Z,19.95
2022-08-26T06:48:54.385Z,19.95
2022-08-26T06:51:25.731Z,20.17
2022-08-26T06:53:55.001Z,20.29
2022-08-26T06:56:24.688Z,20.04
2022-08-26T06:58:52.989Z,20.04
2022-08-26T07:01:26.493Z,20.10
2022-08-26T07:03:56.977Z,20.62
2022-08-26T07:06:26.641Z,20.22
2022-08-26T07:08:56.797Z,20.35
2022-08-26T07:11:24.476Z,20.24
2022-08-26T07:13:53.778Z,20.48
2022-08-26T07:16:22.046Z,20.24
2022-08-26T07:18:52.967Z,20.45
2022-08-26T07:21:22.743Z,20.58
2022-08-26T07:23:55.428Z,20.54
2022-08-26T07:26:28.629Z,20.55
2022-08-26T07:28:59.427Z,20.74
2022-08-26T07:31:29.698Z,20.71
2022-08-26T07:33:58.686Z,20.92
2022-08-26T07:36:29.144Z,21.13
2022-08-26T07:38:59.091Z,20.83
2022-08-26T07:41:27.554Z,20.74
2022-08-26T07:43:55.540Z,20.80
2022-08-26T07:46:30.067Z,20.93
2022-08-26T07:49:00.136Z,21.17
2022-08-26T07:51:29.136Z,20.99
2022-08-26T07:53:58.528Z,20.74
2022-08-26T07:56:27.692Z,21.00
2022-08-26T07:58:55.517Z,21.07
2022-08-26T08:01:25.719Z,21.35
2022-08-26T08:03:54.779Z,21.25
2022-08-26T08:06:27.200Z,21.18
2022-08-26T08:08:55.997Z,21.24
2022-08-26T08:11:27.179Z,21.35
2022-08-26T08:13:56.491Z,21.42
2022-08-26T08:16:25.890Z,21.75
2022-08-26T08:18:53.956Z,21.50
2022-08-26T08:21:23.650Z,21.56
2022-08-26T08:23:52.918Z,21.54
2022-08-26T08:26:21.237Z,21.34
2022-08-26T08:28:50.957Z,21.33
2022-08-26T08:31:52.121Z,21.40
2022-08-26T08:34:12.127Z,21.33
2022-08-26T08:36:39.900Z,21.73
2022-08-26T08:39:07.544Z,21.46
2022-08-26T08:41:45.538Z,21.78
2022-08-26T08:44:20.138Z,21.42
2022-08-26T08:46:52.464Z,21.39
2022-08-26T08:49:20.747Z,21.46
2022-08-26T08:51:53.596Z,21.40
2022-08-26T08:54:26.545Z,21.58
2022-08-26T08:57:00.617Z,21.42
2022-08-26T08:59:34.100Z,21.42
2022-08-26T09:02:07.532Z,21.52
2022-08-26T09:05:02.228Z,21.63
2022-08-26T09:07:36.749Z,21.50
2022-08-26T09:10:20.425Z,21.73
2022-08-26T09:16:35.773Z,21.45
2022-08-26T09:19:11.052Z,21.49
2022-08-26T09:21:39.201Z,22.06
2022-08-26T09:24:07.533Z,21.72
2022-08-26T09:26:48.116Z,21.62
2022-08-26T09:29:23.079Z,22.03
2022-08-26T09:31:53.907Z,21.67
2022-08-26T09:34:25.000Z,22.20
2022-08-26T09:36:54.200Z,22.11
2022-08-26T09:39:34.556Z,22.27
2022-08-26T09:42:11.441Z,22.17
2022-08-26T09:44:57.639Z,22.34
2022-08-26T09:47:29.875Z,22.03
2022-08-26T09:49:59.353Z,22.31
2022-08-26T09:52:27.990Z,22.77
2022-08-26T09:55:03.920Z,22.71
2022-08-26T09:57:34.178Z,22.95
2022-08-26T10:00:03.406Z,23.05
2022-08-26T10:02:41.495Z,22.25
2022-08-26T10:05:18.675Z,23.04
2022-08-26T10:07:51.618Z,23.18
2022-08-26T10:10:23.509Z,23.02
2022-08-26T10:12:57.799Z,23.38
2022-08-26T10:15:26.576Z,23.60
2022-08-26T10:18:02.328Z,23.12
2022-08-26T10:20:36.470Z,23.00
2022-08-26T10:23:07.300Z,23.07
2022-08-26T10:25:38.769Z,22.82
2022-08-26T10:28:11.161Z,22.96
2022-08-26T10:30:44.626Z,23.08
2022-08-26T10:33:15.779Z,22.98
2022-08-26T10:35:51.652Z,23.48
2022-08-26T10:38:23.388Z,23.10
2022-08-26T10:40:56.368Z,23.16
2022-08-26T10:43:27.506Z,23.47
2022-08-26T10:46:00.140Z,23.45
2022-08-26T10:48:37.576Z,23.61
2022-08-26T10:51:08.707Z,23.42
2022-08-26T10:53:44.553Z,23.20
2022-08-26T10:56:20.176Z,23.20
2022-08-26T10:58:56.794Z,23.60
2022-08-26T11:01:47.087Z,23.14
2022-08-26T11:04:45.756Z,23.31
2022-08-26T11:07:39.273Z,23.30
2022-08-26T11:10:54.902Z,23.36
2022-08-26T11:14:00.829Z,23.45
2022-08-26T11:16:42.869Z,23.87
2022-08-26T11:19:13.991Z,23.57
2022-08-26T11:22:06.073Z,23.72
2022-08-26T11:24:55.601Z,23.73
2022-08-26T11:27:53.078Z,23.58
2022-08-26T11:30:58.321Z,24.10
2022-08-26T11:33:58.162Z,24.17
2022-08-26T11:36:59.701Z,24.44
2022-08-26T11:39:32.065Z,24.23
2022-08-26T11:42:22.758Z,24.00
2022-08-26T11:44:52.372Z,24.61
2022-08-26T11:47:28.841Z,25.48
2022-08-26T11:50:12.142Z,25.41
2022-08-26T11:52:41.396Z,25.57
2022-08-26T11:55:11.602Z,25.94
2022-08-26T11:57:44.492Z,24.61
2022-08-26T12:00:21.105Z,24.56
2022-08-26T12:02:52.403Z,25.29
2022-08-26T12:05:24.132Z,24.78
2022-08-26T12:08:00.715Z,24.78
2022-08-26T12:10:31.986Z,24.43
2022-08-26T12:13:01.572Z,24.60
2022-08-26T12:15:31.304Z,24.57
2022-08-26T12:18:17.824Z,25.13
2022-08-26T12:20:53.916Z,24.87
2022-08-26T12:23:28.150Z,25.32
2022-08-26T12:26:05.179Z,25.20
2022-08-26T12:28:33.286Z,24.61
2022-08-26T12:31:05.789Z,25.08
2022-08-26T12:33:35.931Z,25.05
2022-08-26T12:36:05.286Z,25.38
2022-08-26T12:38:37.125Z,25.27
2022-08-26T12:41:05.020Z,25.47
2022-08-26T12:43:44.615Z,26.33
2022-08-26T12:46:15.436Z,25.84
2022-08-26T12:48:45.718Z,25.44
2022-08-26T12:51:22.995Z,25.93
2022-08-26T12:53:52.965Z,26.16
2022-08-26T12:56:27.709Z,25.59
2022-08-26T12:59:07.463Z,26.39
2022-08-26T13:01:40.856Z,26.27
2022-08-26T13:04:08.843Z,26.20
2022-08-26T13:06:36.576Z,26.00
2022-08-26T13:09:26.672Z,25.47
2022-08-26T13:12:02.143Z,26.27
2022-08-26T13:14:31.121Z,25.78
2022-08-26T13:16:59.052Z,26.46
2022-08-26T13:19:27.140Z,25.93
2022-08-26T13:21:57.661Z,25.98
2022-08-26T13:24:29.212Z,25.52
2022-08-26T13:26:57.282Z,25.67
2022-08-26T13:29:26.857Z,25.27
2022-08-26T13:31:57.574Z,25.12
2022-08-26T13:34:26.460Z,25.30
2022-08-26T13:36:56.295Z,25.67
2022-08-26T13:39:24.702Z,25.37
2022-08-26T13:41:53.058Z,25.45
2022-08-26T13:44:21.758Z,25.38
2022-08-26T13:46:51.644Z,25.52
2022-08-26T13:49:20.200Z,25.39
2022-08-26T13:51:48.216Z,25.29
2022-08-26T13:54:16.152Z,24.89
2022-08-26T13:56:44.046Z,25.21
2022-08-26T13:59:14.949Z,25.13
2022-08-26T14:01:43.560Z,24.94
2022-08-26T14:04:12.784Z,24.55
2022-08-26T14:06:40.770Z,24.89
2022-08-26T14:09:08.572Z,24.19
2022-08-26T14:11:53.941Z,24.48
2022-08-26T14:14:23.256Z,24.12
2022-08-26T14:16:59.495Z,24.28
2022-08-26T14:19:30.645Z,24.17
2022-08-26T14:21:59.334Z,24.34
2022-08-26T14:24:27.383Z,24.55
2022-08-26T14:26:55.458Z,24.29
2022-08-26T14:29:23.203Z,24.41
2022-08-26T14:31:51.804Z,24.24
2022-08-26T14:34:19.516Z,24.79
2022-08-26T14:36:48.586Z,24.59
2022-08-26T14:39:16.425Z,24.53
2022-08-26T14:41:54.173Z,24.08
2022-08-26T14:44:23.684Z,24.42
2022-08-26T14:46:53.117Z,24.35
2022-08-26T14:49:21.676Z,24.36
2022-08-26T14:51:51.224Z,24.64
2022-08-26T14:54:18.938Z,24.73
2022-08-26T14:56:49.521Z,24.38
2022-08-26T14:59:20.643Z,24.12
2022-08-26T15:01:49.145Z,24.51
2022-08-26T15:04:17.128Z,24.45
2022-08-26T15:06:45.256Z,24.18
2022-08-26T15:09:14.414Z,24.03
2022-08-26T15:11:42.167Z,24.17
2022-08-26T15:14:18.975Z,24.06
2022-08-26T15:16:48.448Z,24.07
2022-08-26T15:19:16.239Z,24.08
2022-08-26T15:21:45.341Z,24.45
2022-08-26T15:24:15.136Z,24.19
2022-08-26T15:26:43.050Z,23.81
2022-08-26T15:29:10.953Z,24.11
2022-08-26T15:31:39.013Z,23.92
2022-08-26T15:34:13.334Z,23.82
2022-08-26T15:36:46.001Z,24.00
2022-08-26T15:39:16.663Z,23.87
2022-08-26T15:41:44.605Z,23.76
2022-08-26T15:44:13.984Z,23.72
2022-08-26T15:46:42.179Z,23.41
2022-08-26T15:49:16.962Z,23.54
2022-08-26T15:51:47.165Z,23.46
2022-08-26T15:54:16.951Z,23.36
2022-08-26T15:56:45.605Z,23.09
2022-08-26T15:59:16.248Z,22.81
2022-08-26T16:01:44.472Z,22.93
2022-08-26T16:04:12.840Z,22.90
2022-08-26T16:06:42.450Z,22.83
2022-08-26T16:09:10.669Z,22.71
2022-08-26T16:11:40.279Z,22.68
2022-08-26T16:14:08.369Z,22.55
2022-08-26T16:16:39.270Z,22.47
2022-08-26T16:19:07.752Z,22.76
2022-08-26T16:21:35.945Z,22.63
2022-08-26T16:24:05.079Z,22.73
2022-08-26T16:26:34.730Z,22.69
2022-08-26T16:29:06.736Z,22.81
2022-08-26T16:31:35.358Z,22.98
2022-08-26T16:34:03.107Z,22.88
2022-08-26T16:36:31.331Z,22.88
2022-08-26T16:38:59.987Z,22.83
2022-08-26T16:41:30.252Z,22.88
2022-08-26T16:43:58.566Z,22.46
2022-08-26T16:46:30.947Z,22.32
2022-08-26T16:49:00.138Z,22.36
2022-08-26T16:51:28.966Z,22.38
2022-08-26T16:53:58.838Z,22.34
2022-08-26T16:56:34.020Z,22.30
2022-08-26T16:59:02.858Z,22.26
2022-08-26T17:01:32.106Z,22.33
2022-08-26T17:04:00.504Z,22.32
2022-08-26T17:06:28.688Z,22.12
2022-08-26T17:08:56.565Z,22.11
2022-08-26T17:11:24.279Z,22.11
2022-08-26T17:13:53.013Z,22.20
2022-08-26T17:16:26.363Z,22.10
2022-08-26T17:18:56.296Z,22.16
2022-08-26T17:21:24.181Z,22.11
2022-08-26T17:23:53.403Z,21.98
2022-08-26T17:26:21.278Z,21.93
2022-08-26T17:28:50.612Z,21.84
2022-08-26T17:31:19.377Z,21.81
2022-08-26T17:33:50.695Z,21.82
2022-08-26T17:36:27.957Z,21.73
2022-08-26T17:39:57.859Z,21.69
2022-08-26T17:42:31.540Z,21.62
2022-08-26T17:45:00.653Z,21.59
2022-08-26T17:47:28.943Z,21.60
2022-08-26T17:50:58.264Z,21.64
2022-08-26T17:53:31.377Z,21.61
2022-08-26T17:56:00.159Z,21.51
2022-08-26T17:58:30.284Z,21.54
2022-08-26T18:00:58.191Z,21.46
2022-08-26T18:03:26.236Z,21.35
2022-08-26T18:05:55.206Z,21.32
2022-08-26T18:08:23.562Z,21.32
2022-08-26T18:10:52.688Z,21.29
2022-08-26T18:13:21.429Z,21.27
2022-08-26T18:15:49.344Z,21.26
2022-08-26T18:18:17.551Z,21.12
2022-08-26T18:20:46.719Z,21.16
2022-08-26T18:23:20.435Z,21.16
2022-08-26T18:25:48.281Z,21.14
2022-08-26T18:28:17.949Z,21.01
2022-08-26T18:30:45.985Z,20.94
2022-08-26T18:33:15.841Z,20.84
2022-08-26T18:35:45.091Z,20.79
2022-08-26T18:38:15.285Z,20.77
2022-08-26T18:40:45.454Z,20.68
2022-08-26T18:43:13.501Z,20.62
2022-08-26T18:45:42.718Z,20.46
2022-08-26T18:48:10.689Z,20.50
2022-08-26T18:50:41.805Z,20.48
2022-08-26T18:53:10.985Z,20.46
2022-08-26T18:55:40.008Z,20.42
2022-08-26T18:58:08.421Z,20.46
2022-08-26T19:00:37.327Z,20.39
2022-08-26T19:03:18.486Z,20.41
2022-08-26T19:05:47.189Z,20.45
2022-08-26T19:08:15.980Z,20.35
2022-08-26T19:10:44.273Z,20.31
2022-08-26T19:13:13.366Z,20.36
2022-08-26T19:15:45.501Z,20.20
2022-08-26T19:18:16.036Z,20.18
2022-08-26T19:20:46.761Z,20.14
2022-08-26T19:23:30.823Z,20.18
2022-08-26T19:25:59.627Z,20.14
2022-08-26T19:28:28.370Z,20.17
2022-08-26T19:30:56.305Z,20.07
2022-08-26T19:33:28.033Z,20.06
2022-08-26T19:35:56.114Z,20.00
2022-08-26T19:38:24.149Z,20.00
2022-08-26T19:40:52.064Z,19.90
2022-08-26T19:43:19.785Z,19.88
2022-08-26T19:45:48.388Z,19.90
2022-08-26T19:48:16.131Z,19.96
2022-08-26T19:50:47.336Z,19.84
2022-08-26T19:53:15.972Z,19.81
2022-08-26T19:55:43.828Z,19.82
2022-08-26T19:58:12.301Z,19.84
2022-08-26T20:00:42.842Z,19.82
2022-08-26T20:03:15.866Z,19.72
2022-08-26T20:05:45.748Z,19.78
2022-08-26T20:08:22.380Z,19.72
2022-08-26T20:10:51.601Z,19.63
2022-08-26T20:13:20.439Z,19.71
2022-08-26T20:15:49.781Z,19.72
2022-08-26T20:18:35.401Z,19.60
2022-08-26T20:21:22.388Z,19.59
2022-08-26T20:23:51.505Z,19.59
2022-08-26T20:26:19.383Z,19.61
2022-08-26T20:28:47.223Z,19.55
2022-08-26T20:31:19.339Z,19.56
2022-08-26T20:33:48.215Z,19.44
2022-08-26T20:36:20.259Z,19.43
2022-08-26T20:38:48.676Z,19.48
2022-08-26T20:41:17.331Z,19.33
2022-08-26T20:43:46.302Z,19.31
2022-08-26T20:46:18.797Z,19.38
2022-08-26T20:48:48.073Z,19.32
2022-08-26T20:51:18.832Z,19.23
2022-08-26T20:53:46.980Z,19.20
2022-08-26T20:56:16.703Z,19.14
2022-08-26T20:58:44.446Z,19.16
2022-08-26T21:01:19.455Z,19.12
2022-08-26T21:03:47.999Z,19.11
2022-08-26T21:06:15.754Z,18.98
2022-08-26T21:08:46.171Z,18.94
2022-08-26T21:11:14.367Z,18.66
2022-08-26T21:14:01.634Z,18.64
2022-08-26T21:16:31.324Z,18.74
2022-08-26T21:19:00.612Z,18.55
2022-08-26T21:21:28.539Z,18.62
2022-08-26T21:23:57.856Z,18.33
2022-08-26T21:26:25.848Z,18.29
2022-08-26T21:28:53.642Z,18.24
2022-08-26T21:31:25.835Z,18.25
2022-08-26T21:33:53.903Z,18.13
2022-08-26T21:36:23.549Z,18.00
2022-08-26T21:38:51.362Z,18.00
2022-08-26T21:41:22.652Z,18.08
2022-08-26T21:43:53.891Z,17.91
2022-08-26T21:46:25.098Z,18.01
2022-08-26T21:48:56.135Z,17.94
2022-08-26T21:51:25.899Z,17.88
2022-08-26T21:53:56.026Z,17.79
2022-08-26T21:56:27.938Z,17.76
2022-08-26T21:58:58.576Z,17.69
2022-08-26T22:02:28.065Z,17.68
2022-08-26T22:04:57.542Z,17.71
2022-08-26T22:07:25.267Z,17.61
2022-08-26T22:09:52.967Z,17.57
2022-08-26T22:12:22.255Z,17.54
2022-08-26T22:14:50.108Z,17.59
2022-08-26T22:17:18.806Z,17.55
2022-08-26T22:19:46.906Z,17.56
2022-08-26T22:22:15.042Z,17.54
2022-08-26T22:24:44.055Z,17.51
2022-08-26T22:27:12.132Z,17.45
2022-08-26T22:29:41.578Z,17.50
2022-08-26T22:32:09.698Z,17.47
2022-08-26T22:34:37.399Z,17.38
2022-08-26T22:37:06.472Z,17.47
2022-08-26T22:39:34.610Z,17.44
2022-08-26T22:43:03.739Z,17.36
2022-08-26T22:45:33.514Z,17.40
2022-08-26T22:48:04.627Z,17.35
2022-08-26T22:50:33.651Z,17.30
2022-08-26T22:53:03.600Z,17.32
2022-08-26T22:55:33.244Z,17.35
2022-08-26T22:58:01.180Z,17.28
2022-08-26T23:00:32.460Z,17.31
2022-08-26T23:03:02.190Z,17.24
2022-08-26T23:05:31.066Z,17.19
2022-08-26T23:09:00.539Z,17.20
2022-08-26T23:11:28.378Z,17.16
2022-08-26T23:13:56.048Z,17.21
2022-08-26T23:16:23.936Z,17.25
2022-08-26T23:18:53.292Z,17.20
2022-08-26T23:21:21.015Z,17.18
2022-08-26T23:23:49.794Z,17.22
2022-08-26T23:26:17.934Z,17.18
2022-08-26T23:28:45.971Z,17.21
2022-08-26T23:31:14.679Z,17.22
2022-08-26T23:34:00.625Z,17.18
2022-08-26T23:36:32.005Z,17.23
2022-08-26T23:39:03.133Z,17.25
2022-08-26T23:41:31.073Z,17.24
2022-08-26T23:44:03.256Z,17.31
2022-08-26T23:46:31.412Z,17.27
2022-08-26T23:48:59.351Z,17.25
2022-08-26T23:51:44.782Z,17.28
2022-08-26T23:54:15.508Z,17.28
2022-08-26T23:56:43.877Z,17.31
2022-08-26T23:59:11.876Z,17.29
